Data for 06/21/2018

Time Sea-Level Adjusted Pressure Absolute Pressure Temperature Relative Humidity Dew Point   
(mb) (inHg) (mb) (inHg) (C) (F) (%) (C) (F)
00:05 1021 30.15 850 25.1 15 59 67 8.9 48
00:10 1021 30.15 850 25.1 14.9 58.9 67 8.9 47.9
00:15 1021 30.15 850 25.1 14.8 58.7 67 8.8 47.8
00:20 1021 30.15 850 25.1 14.8 58.7 67 8.8 47.8
00:25 1021 30.15 850 25.1 14.8 58.6 67 8.7 47.7
00:30 1021 30.15 850 25.1 14.7 58.4 66 8.5 47.4
00:35 1021 30.15 850 25.1 14.7 58.5 67 8.7 47.7
00:40 1021 30.15 850 25.1 14.8 58.6 67 8.7 47.6
00:45 1021 30.15 850 25.1 14.7 58.4 67 8.7 47.7
00:50 1021 30.15 850 25.1 14.6 58.3 67 8.6 47.5
00:55 1021 30.15 850 25.1 14.5 58.1 68 8.7 47.6
01:00 1021 30.15 850 25.1 14.4 57.9 69 8.8 47.8
01:05 1021 30.15 850 25.1 14.4 57.9 68 8.7 47.6
01:10 1021 30.15 850 25.1 14.3 57.8 69 8.7 47.7
01:15 1021 30.15 850 25.1 14.2 57.6 68 8.5 47.4
01:20 1021 30.15 850 25.1 14.4 57.8 67 8.3 47
01:25 1020 30.12 850 25.1 14.4 57.8 67 8.3 46.9
01:30 1021 30.15 850 25.1 14.3 57.8 67 8.3 46.9
01:35 1021 30.15 850 25.1 14.3 57.8 66 8.2 46.7
01:40 1021 30.15 850 25.1 14.3 57.7 67 8.3 47
01:45 1021 30.15 850 25.1 14.3 57.7 68 8.5 47.2
01:50 1020 30.12 850 25.1 14.2 57.5 67 8.2 46.8
01:55 1020 30.12 850 25.1 14.1 57.3 68 8.4 47.1
02:00 1020 30.12 850 25.1 14 57.2 69 8.3 47
02:05 1020 30.12 850 25.1 14 57.2 68 8.2 46.8
02:10 1020 30.12 850 25.1 13.9 57.1 68 8.1 46.6
02:15 1021 30.15 850 25.1 13.8 56.9 69 8.2 46.8
02:20 1021 30.15 850 25.1 13.9 56.9 69 8.4 47.1
02:25 1021 30.15 850 25.1 13.8 56.8 70 8.5 47.2
02:30 1021 30.15 850 25.1 13.7 56.7 70 8.5 47.3
02:35 1021 30.15 850 25.1 13.7 56.7 70 8.5 47.2
02:40 1021 30.15 850 25.1 13.8 56.9 69 8.3 47
02:45 1021 30.15 850 25.1 13.9 57 70 8.5 47.4
02:50 1021 30.15 850 25.1 13.8 56.8 72 8.8 47.8
02:55 1021 30.15 850 25.1 13.6 56.4 74 9.1 48.3
03:00 1021 30.15 850 25.1 13.4 56.1 75 9 48.2
03:05 1021 30.15 850 25.1 13.3 56 75 9.1 48.4
03:10 1021 30.15 850 25.1 13.3 55.9 75 9 48.3
03:15 1021 30.15 850 25.1 13.2 55.7 76 9.1 48.4
03:20 1021 30.15 850 25.1 13.1 55.5 78 9.3 48.8
03:25 1020 30.12 850 25.1 12.9 55.1 79 9.3 48.8
03:30 1020 30.12 850 25.1 12.7 54.8 80 9.3 48.8
03:35 1020 30.12 849 25.07 12.6 54.6 80 9.2 48.6
03:40 1020 30.12 849 25.07 12.6 54.7 79 9.2 48.5
03:45 1020 30.12 850 25.1 12.8 55 78 9.2 48.5
03:50 1021 30.15 850 25.1 12.9 55.3 78 9.2 48.5
03:55 1021 30.15 850 25.1 13.1 55.6 78 9.4 48.9
04:00 1021 30.15 850 25.1 13.3 56 78 9.7 49.4
04:05 1021 30.15 850 25.1 13.3 55.9 79 9.7 49.4
04:10 1021 30.15 850 25.1 13.2 55.8 80 9.8 49.6
04:15 1021 30.15 850 25.1 13.1 55.6 79 9.7 49.4
04:20 1021 30.15 850 25.1 13.2 55.7 80 9.7 49.5
04:25 1021 30.15 850 25.1 13.2 55.7 79 9.7 49.5
04:30 1021 30.15 851 25.13 13 55.5 82 10 50.1
04:35 1021 30.15 851 25.13 12.7 54.9 82 9.8 49.6
04:40 1021 30.15 851 25.13 12.8 55 83 9.9 49.9
04:45 1021 30.15 850 25.1 12.7 54.8 84 10.1 50.1
04:50 1021 30.15 850 25.1 12.4 54.4 85 10 50
04:55 1021 30.15 850 25.1 12.4 54.3 83 9.7 49.4
05:00 1021 30.15 850 25.1 12.5 54.5 84 9.9 49.8
05:05 1021 30.15 850 25.1 12.4 54.4 84 9.8 49.6
05:10 1021 30.15 850 25.1 12.4 54.3 84 9.8 49.6
05:15 1021 30.15 850 25.1 12.3 54.1 83 9.6 49.2
05:20 1020 30.12 850 25.1 12.3 54.1 83 9.5 49.1
05:25 1020 30.12 850 25.1 12.3 54.1 83 9.4 49
05:30 1020 30.12 849 25.07 12.3 54.2 83 9.5 49
05:35 1020 30.12 849 25.07 12.3 54.1 83 9.4 48.9
05:40 1020 30.12 849 25.07 12.2 54 83 9.4 49
05:45 1020 30.12 849 25.07 12.1 53.7 83 9.4 48.8
05:50 1020 30.12 849 25.07 12.1 53.7 84 9.4 48.9
05:55 1020 30.12 849 25.07 11.9 53.4 84 9.3 48.8
06:00 1020 30.12 849 25.07 11.9 53.4 82 9 48.2
06:05 1020 30.12 849 25.07 12.2 53.9 81 9 48.2
06:10 1020 30.12 849 25.07 12.3 54.1 80 9 48.2
06:15 1020 30.12 849 25.07 12.4 54.4 79 9 48.2
06:20 1020 30.12 849 25.07 12.6 54.7 78 8.9 48.1
06:25 1020 30.12 849 25.07 12.8 55.1 78 9.1 48.3
06:30 1020 30.12 849 25.07 12.9 55.3 77 9.1 48.4
06:35 1020 30.12 849 25.07 13 55.5 78 9.2 48.6
06:40 1020 30.12 849 25.07 13.1 55.6 78 9.4 49
06:45 1020 30.12 849 25.07 13 55.3 78 9.3 48.7
06:50 1020 30.12 849 25.07 13 55.4 77 9.1 48.3
06:55 1020 30.12 849 25.07 13.3 55.9 75 9 48.3
07:00 1020 30.12 849 25.07 13.6 56.5 74 9 48.2
07:05 1020 30.12 849 25.07 13.9 57 73 9.1 48.3
07:10 1020 30.12 849 25.07 13.9 57.1 74 9.4 48.9
07:15 1020 30.12 849 25.07 13.9 57.1 73 9.2 48.5
07:20 1020 30.12 849 25.07 14.2 57.6 72 9.2 48.6
07:25 1020 30.12 849 25.07 14.7 58.5 69 9.1 48.4
07:30 1020 30.12 849 25.07 15 59 69 9.3 48.8
07:35 1020 30.12 849 25.07 15 59 70 9.7 49.5
07:40 1020 30.12 849 25.07 15 58.9 69 9.5 49
07:45 1020 30.12 849 25.07 15 59 69 9.4 48.9
07:50 1020 30.12 849 25.07 15.2 59.3 69 9.5 49.1
07:55 1020 30.12 849 25.07 15.2 59.4 70 9.8 49.6
08:00 1020 30.12 849 25.07 15.3 59.5 69 9.6 49.4
08:05 1020 30.12 849 25.07 15.6 60 69 9.9 49.8
08:10 1020 30.12 849 25.07 16 60.8 69 10.4 50.6
08:15 1020 30.12 849 25.07 16.6 61.9 67 10.5 50.9
08:20 1020 30.12 849 25.07 16.9 62.4 65 10.3 50.6
08:25 1020 30.12 849 25.07 16.9 62.4 64 10 50
08:30 1020 30.12 849 25.07 16.9 62.4 62 9.7 49.5
08:35 1020 30.12 849 25.07 17.1 62.8 61 9.6 49.4
08:40 1020 30.12 849 25.07 17.8 64.1 61 10.2 50.4
08:45 1020 30.12 849 25.07 18.1 64.6 57 9.5 49.2
08:50 1020 30.12 849 25.07 18 64.4 58 9.8 49.6
08:55 1020 30.12 849 25.07 17.8 64 59 9.6 49.3
09:00 1020 30.12 849 25.07 17.9 64.2 58 9.7 49.5
09:05 1020 30.12 849 25.07 18 64.4 58 9.8 49.6
09:10 1020 30.12 849 25.07 18.4 65.1 55 9.4 48.9
09:15 1020 30.12 849 25.07 18.6 65.4 62 11.2 52.2
09:20 1020 30.12 849 25.07 18.9 66.1 60 11.1 52
09:25 1020 30.12 849 25.07 19.4 66.9 59 11.3 52.3
09:30 1020 30.12 849 25.07 18.8 65.9 63 11.8 53.2
09:35 1020 30.12 849 25.07 17.3 63.1 67 11.2 52.2
09:40 1020 30.12 849 25.07 16.7 62.1 66 10.3 50.5
09:45 1020 30.12 849 25.07 16.5 61.8 68 10.7 51.3
09:50 1020 30.12 849 25.07 16.7 62.1 66 10.4 50.7
09:55 1020 30.12 849 25.07 16.9 62.5 65 10.4 50.6
10:00 1020 30.12 849 25.07 17.6 63.7 61 10.2 50.3
10:05 1020 30.12 849 25.07 18.4 65 62 11.1 52.1
10:10 1020 30.12 849 25.07 18.3 65 62 11.1 51.9
10:15 1019 30.09 849 25.07 17.6 63.7 63 10.6 51
10:20 1019 30.09 849 25.07 17.8 64 62 10.5 50.9
10:25 1019 30.09 849 25.07 18.8 65.9 59 10.7 51.2
10:30 1019 30.09 848 25.04 19.8 67.6 55 10.6 51.1
10:35 1019 30.09 848 25.04 20.1 68.2 54 10.8 51.4
10:40 1019 30.09 848 25.04 20.6 69 52 10.4 50.7
10:45 1019 30.09 848 25.04 20.6 69.1 56 11.7 53.1
10:50 1019 30.09 848 25.04 20.4 68.6 53 10.5 50.9
10:55 1019 30.09 848 25.04 20.4 68.7 53 10.7 51.2
11:00 1019 30.09 848 25.04 21.4 70.6 47 9.8 49.6
11:05 1019 30.09 848 25.04 22.1 71.9 42 9 48.1
11:10 1019 30.09 848 25.04 22.5 72.6 40 8.4 47.2
11:15 1019 30.09 848 25.04 21.8 71.2 43 8.7 47.6
11:20 1019 30.09 848 25.04 21.7 71.1 42 8.5 47.2
11:25 1019 30.09 848 25.04 21.9 71.5 43 8.9 48
11:30 1019 30.09 848 25.04 21.9 71.4 40 8 46.5
11:35 1018 30.06 848 25.04 23 73.4 38 8.1 46.5
11:40 1018 30.06 848 25.04 24.2 75.6 39 9.5 49.1
11:45 1018 30.06 848 25.04 24.1 75.3 38 9.3 48.7
11:50 1018 30.06 848 25.04 24.4 75.9 38 9.2 48.6
11:55 1018 30.06 848 25.04 23.6 74.6 39 9.3 48.7
12:00 1018 30.06 848 25.04 22.8 73 41 9.2 48.5
12:05 1018 30.06 847 25.01 22.5 72.6 43 9.3 48.8
12:10 1018 30.06 847 25.01 22.5 72.4 41 8.8 47.8
12:15 1018 30.06 847 25.01 22.2 71.9 49 11 51.8
12:20 1018 30.06 847 25.01 21.6 70.8 50 10.8 51.4
12:25 1018 30.06 847 25.01 21.2 70.1 49 10.3 50.5
12:30 1018 30.06 847 25.01 20.6 69.1 50 9.8 49.7
12:35 1018 30.06 847 25.01 20.8 69.5 48 9.6 49.3
12:40 1018 30.06 847 25.01 22.1 71.8 42 8.8 47.8
12:45 1018 30.06 847 25.01 21.4 70.5 41 7.8 46.1
12:50 1018 30.06 847 25.01 21.2 70.2 45 8.8 47.9
12:55 1017 30.03 847 25.01 21.5 70.6 45 9.2 48.6
13:00 1017 30.03 847 25.01 21.6 70.9 45 9.4 49
13:05 1017 30.03 846 24.98 22.2 72 41 8.6 47.5
13:10 1017 30.03 846 24.98 22.9 73.1 41 9.1 48.3
13:15 1017 30.03 846 24.98 22.7 72.8 43 9.6 49.2
13:20 1017 30.03 846 24.98 22.8 73 43 9.9 49.8
13:25 1017 30.03 846 24.98 22.5 72.5 42 9.2 48.5
13:30 1017 30.03 846 24.98 22.9 73.3 44 10.2 50.3
13:35 1017 30.03 846 24.98 23.2 73.8 43 10.1 50.2
13:40 1017 30.03 846 24.98 23.7 74.7 40 9.4 48.9
13:45 1017 30.03 846 24.98 23.8 74.9 40 9.7 49.4
13:50 1017 30.03 846 24.98 23.6 74.5 42 10.3 50.5
13:55 1017 30.03 846 24.98 22.5 72.6 43 9.6 49.4
14:00 1017 30.03 846 24.98 22.4 72.4 44 9.6 49.3
14:05 1017 30.03 846 24.98 22.2 72 45 10 50
14:10 1017 30.03 846 24.98 21.3 70.3 47 9.7 49.4
14:15 1017 30.03 846 24.98 20.7 69.2 54 11.3 52.3
14:20 1017 30.03 846 24.98 19.6 67.2 58 11.3 52.3
14:25 1017 30.03 846 24.98 18.3 65 67 12.1 53.8
14:30 1017 30.03 846 24.98 17.6 63.8 70 12.1 53.8
14:35 1017 30.03 846 24.98 17.4 63.2 73 12.5 54.6
14:40 1018 30.06 847 25.01 16.7 62.1 75 12.2 54
14:45 1018 30.06 848 25.04 15.9 60.5 81 12.6 54.7
14:50 1018 30.06 848 25.04 15 59 81 11.7 53.1
14:55 1019 30.09 848 25.04 14.5 58.1 82 11.5 52.7
15:00 1019 30.09 848 25.04 14.4 58 80 11.1 52
15:05 1020 30.12 849 25.07 14.3 57.7 79 10.7 51.2
15:10 1020 30.12 849 25.07 13.9 57.1 78 10.1 50.2
15:15 1020 30.12 849 25.07 13.6 56.5 78 9.9 49.7
15:20 1020 30.12 849 25.07 13.4 56.1 79 9.9 49.9
15:25 1020 30.12 850 25.1 13 55.5 81 9.8 49.6
15:30 1021 30.15 850 25.1 13.1 55.5 79 9.5 49.1
15:35 1021 30.15 850 25.1 13.1 55.6 79 9.6 49.3
15:40 1021 30.15 850 25.1 13.1 55.6 75 8.8 47.8
15:45 1021 30.15 850 25.1 13.2 55.7 78 9.4 49
15:50 1021 30.15 850 25.1 13.1 55.5 78 9.3 48.7
15:55 1021 30.15 850 25.1 13.1 55.6 75 8.9 48
16:00 1021 30.15 850 25.1 13.2 55.7 77 9.3 48.7
16:05 1021 30.15 850 25.1 13.3 55.9 75 9 48.2
16:10 1021 30.15 850 25.1 13.4 56.2 73 8.8 47.9
16:15 1021 30.15 850 25.1 13.6 56.5 74 9.2 48.5
16:20 1021 30.15 850 25.1 13.9 57 73 9.3 48.7
16:25 1021 30.15 850 25.1 13.9 57 73 9.1 48.3
16:30 1021 30.15 850 25.1 14.4 57.8 70 8.9 48.1
16:35 1020 30.12 850 25.1 14.8 58.6 69 9.1 48.4
16:40 1020 30.12 849 25.07 15.3 59.5 73 10.5 51
16:45 1020 30.12 849 25.07 15.6 60.1 68 9.9 49.8
16:50 1020 30.12 849 25.07 15.9 60.6 65 9.4 49
16:55 1020 30.12 849 25.07 16.7 62.1 59 8.8 47.8
17:00 1019 30.09 849 25.07 17.3 63.1 52 7.5 45.4
17:05 1019 30.09 849 25.07 17.4 63.3 50 6.9 44.3
17:10 1019 30.09 849 25.07 16.6 61.8 53 7 44.6
17:15 1019 30.09 848 25.04 16.5 61.7 54 7.2 44.9
17:20 1019 30.09 849 25.07 16.4 61.6 51 6.5 43.7
17:25 1019 30.09 849 25.07 16.1 60.9 54 7 44.5
17:30 1019 30.09 849 25.07 16.5 61.8 52 6.7 44
17:35 1019 30.09 849 25.07 17.2 63 49 6.6 43.8
17:40 1019 30.09 848 25.04 17.4 63.3 49 6.8 44.3
17:45 1019 30.09 848 25.04 17.5 63.5 52 7.6 45.6
17:50 1019 30.09 848 25.04 17.7 63.8 50 7.2 45
17:55 1019 30.09 848 25.04 17.1 62.7 53 7.4 45.3
18:00 1019 30.09 848 25.04 17.1 62.7 50 6.6 43.9
18:05 1019 30.09 848 25.04 17.7 63.9 49 6.9 44.4
18:10 1019 30.09 848 25.04 17.6 63.7 51 7.4 45.3
18:15 1019 30.09 848 25.04 17 62.7 54 7.8 46.1
18:20 1019 30.09 848 25.04 16.9 62.3 55 7.8 46
18:25 1019 30.09 848 25.04 16.8 62.2 55 7.7 45.9
18:30 1019 30.09 848 25.04 16.7 62.1 54 7.3 45.2
18:35 1019 30.09 848 25.04 16.6 61.8 56 7.9 46.2
18:40 1019 30.09 848 25.04 16.4 61.5 59 8.5 47.3
18:45 1019 30.09 848 25.04 16 60.8 57 7.6 45.6
18:50 1019 30.09 848 25.04 16 60.8 57 7.6 45.7
18:55 1019 30.09 848 25.04 15.9 60.6 59 8 46.4
19:00 1019 30.09 848 25.04 16 60.8 58 7.8 46.1
19:05 1019 30.09 848 25.04 16.3 61.3 56 7.7 45.8
19:10 1019 30.09 848 25.04 16.1 60.9 57 7.6 45.6
19:15 1019 30.09 848 25.04 16 60.8 58 7.9 46.2
19:20 1019 30.09 848 25.04 15.9 60.6 58 7.7 45.8
19:25 1019 30.09 848 25.04 15.8 60.5 57 7.5 45.5
19:30 1019 30.09 848 25.04 15.8 60.4 58 7.7 45.9
19:35 1019 30.09 848 25.04 15.8 60.5 57 7.4 45.4
19:40 1019 30.09 848 25.04 15.8 60.4 57 7.3 45.1
19:45 1019 30.09 848 25.04 15.8 60.5 56 7.1 44.7
19:50 1019 30.09 848 25.04 15.9 60.5 57 7.4 45.3
19:55 1019 30.09 848 25.04 15.9 60.5 58 7.6 45.7
20:00 1019 30.09 848 25.04 15.8 60.4 56 7.2 44.9
20:05 1019 30.09 848 25.04 15.7 60.2 56 7.1 44.8
20:10 1019 30.09 848 25.04 15.7 60.3 56 7.1 44.7
20:15 1019 30.09 848 25.04 15.7 60.3 57 7.3 45.2
20:20 1019 30.09 848 25.04 15.6 60.1 58 7.4 45.3
20:25 1019 30.09 848 25.04 15.5 59.8 57 7.1 44.7
20:30 1019 30.09 848 25.04 15.3 59.5 58 7 44.6
20:35 1019 30.09 848 25.04 15.2 59.3 59 7.2 44.9
20:40 1019 30.09 848 25.04 15.1 59.1 59 7.1 44.8
20:45 1019 30.09 848 25.04 15.1 59.2 63 8.1 46.7
20:50 1019 30.09 848 25.04 14.7 58.5 65 8.2 46.8
20:55 1019 30.09 848 25.04 14.6 58.2 66 8.3 47
21:00 1019 30.09 848 25.04 14.4 58 68 8.6 47.5
21:05 1019 30.09 848 25.04 14.3 57.7 69 8.7 47.7
21:10 1019 30.09 848 25.04 14.3 57.7 70 8.9 48.1
21:15 1019 30.09 848 25.04 14.2 57.6 68 8.4 47.2
21:20 1019 30.09 848 25.04 14.3 57.7 68 8.4 47.1
21:25 1019 30.09 848 25.04 14.3 57.8 67 8.4 47.2
21:30 1019 30.09 848 25.04 14.4 57.9 67 8.4 47
21:35 1019 30.09 848 25.04 14.5 58 68 8.7 47.7
21:40 1019 30.09 848 25.04 14.3 57.7 72 9.3 48.7
21:45 1019 30.09 848 25.04 14.1 57.3 72 9.2 48.6
21:50 1019 30.09 848 25.04 14 57.2 76 9.8 49.7
21:55 1019 30.09 848 25.04 13.7 56.6 78 9.9 49.8
22:00 1019 30.09 848 25.04 13.6 56.4 79 10 50.1
22:05 1019 30.09 849 25.07 13.5 56.3 78 9.8 49.6
22:10 1019 30.09 849 25.07 13.6 56.5 73 8.9 48
22:15 1019 30.09 849 25.07 13.7 56.6 71 8.6 47.5
22:20 1020 30.12 849 25.07 13.7 56.6 72 8.8 47.8
22:25 1020 30.12 849 25.07 13.7 56.7 72 8.8 47.9
22:30 1020 30.12 849 25.07 13.5 56.3 74 8.9 48.1
22:35 1020 30.12 849 25.07 13.5 56.2 74 9 48.1
22:40 1020 30.12 849 25.07 13.5 56.4 74 9 48.2
22:45 1020 30.12 849 25.07 13.6 56.5 74 9.1 48.4
22:50 1020 30.12 849 25.07 13.6 56.5 75 9.2 48.6
22:55 1019 30.09 849 25.07 13.5 56.3 76 9.4 48.9
23:00 1019 30.09 849 25.07 13.5 56.4 76 9.3 48.8
23:05 1019 30.09 849 25.07 13.1 55.6 78 9.4 49
23:10 1019 30.09 849 25.07 12.6 54.7 78 8.8 47.9
23:15 1019 30.09 849 25.07 12.5 54.5 75 8.1 46.6
23:20 1019 30.09 848 25.04 12.7 54.8 73 7.9 46.3
23:25 1019 30.09 848 25.04 12.8 55 71 7.7 45.9
23:30 1019 30.09 848 25.04 12.8 55 72 7.9 46.2
23:35 1019 30.09 848 25.04 12.8 55 74 8.3 47
23:40 1019 30.09 848 25.04 12.8 55 73 8.1 46.6
23:45 1019 30.09 848 25.04 13 55.4 71 8 46.4
23:50 1019 30.09 848 25.04 13.2 55.8 73 8.5 47.4
23:55 1019 30.09 849 25.07 13.4 56 74 8.9 48
24:00 1019 30.09 849 25.07 13.4 56.1 73 8.7 47.6